Time;durP1;ratioP1;P1;durP2;ratioP2;P2;SDS_P1;SDS_P2;PMS_P1;PMS_P2;Temp;Humidity;BMP_temperature;BMP_pressure;BME280_temperature;BME280_humidity;BME280_pressure;Samples;Min_cycle;Max_cycle;Signal;HPM_P1;HPM_P2
2023/04/22 02:21:24;;;;;;;14.87;13.47;;;8.30;1.00;;;;;;6231602;22;20209;-88
2023/04/22 02:23:59;;;;;;;14.73;13.33;;;8.30;1.00;;;;;;6219948;23;20182;-88
2023/04/22 02:26:52;;;;;;;14.83;13.33;;;7.80;1.00;;;;;;6217112;23;20189;-88
2023/04/22 02:29:20;;;;;;;14.70;13.40;;;8.30;1.00;;;;;;6243659;22;20180;-89
2023/04/22 02:31:46;;;;;;;14.73;13.27;;;8.30;1.00;;;;;;6216926;23;20173;-88
2023/04/22 02:34:20;;;;;;;15.17;13.77;;;8.80;1.00;;;;;;6243909;23;20176;-87
2023/04/22 02:36:45;;;;;;;15.33;13.87;;;9.00;1.00;;;;;;6217031;23;20160;-88
2023/04/22 02:39:33;;;;;;;14.33;12.93;;;8.10;1.00;;;;;;6216515;23;20155;-88
2023/04/22 02:42:04;;;;;;;14.73;13.23;;;8.40;1.00;;;;;;6216545;23;20184;-89
2023/04/22 02:44:32;;;;;;;14.67;13.20;;;8.20;1.00;;;;;;6216317;23;20162;-88
2023/04/22 02:47:02;;;;;;;14.83;13.43;;;8.70;1.00;;;;;;6216341;23;20609;-88
2023/04/22 02:49:28;;;;;;;14.23;12.73;;;8.20;1.00;;;;;;6215462;23;20164;-88
2023/04/22 02:51:54;;;;;;;14.70;13.30;;;8.60;1.00;;;;;;6215261;23;20201;-88
2023/04/22 02:54:26;;;;;;;13.30;12.00;;;7.80;1.00;;;;;;6242309;23;20983;-88
2023/04/22 02:56:52;;;;;;;14.43;13.10;;;8.30;1.00;;;;;;6216065;23;20177;-89
2023/04/22 02:59:18;;;;;;;14.30;13.00;;;8.40;1.00;;;;;;6215612;23;20157;-89
2023/04/22 03:01:46;;;;;;;15.70;14.10;;;8.30;1.00;;;;;;6216144;23;20204;-89
2023/04/22 03:04:21;;;;;;;14.50;13.00;;;8.30;1.00;;;;;;6214915;23;20165;-88
2023/04/22 03:06:50;;;;;;;14.87;13.37;;;8.40;1.00;;;;;;6192458;23;20363;-88
2023/04/22 03:09:26;;;;;;;15.63;13.03;;;9.10;1.00;;;;;;6214874;23;20485;-89
2023/04/22 03:12:04;;;;;;;15.60;12.73;;;8.90;1.00;;;;;;6215683;23;20177;-88
2023/04/22 03:14:32;;;;;;;14.83;13.40;;;8.50;1.00;;;;;;6215500;23;20174;-89
2023/04/22 03:17:17;;;;;;;13.57;12.37;;;8.80;1.00;;;;;;6215698;23;20156;-88
2023/04/22 03:20:05;;;;;;;17.60;12.20;;;8.90;1.00;;;;;;6193808;23;20161;-87
2023/04/22 03:22:37;;;;;;;14.90;13.43;;;8.60;1.00;;;;;;6214641;23;20197;-89
2023/04/22 03:25:06;;;;;;;13.73;12.27;;;8.40;1.00;;;;;;6215023;23;20153;-88
2023/04/22 03:27:44;;;;;;;13.97;12.63;;;8.50;1.00;;;;;;6213656;23;20162;-88
2023/04/22 03:30:26;;;;;;;14.80;13.30;;;8.90;1.00;;;;;;6241962;23;20260;-88
2023/04/22 03:32:52;;;;;;;13.63;12.33;;;7.90;1.00;;;;;;6206732;23;20256;-89
2023/04/22 03:35:23;;;;;;;14.10;12.60;;;8.10;1.00;;;;;;6214567;23;20169;-88
2023/04/22 03:37:49;;;;;;;18.33;14.23;;;8.10;1.00;;;;;;6241503;23;20153;-89
2023/04/22 03:40:17;;;;;;;15.17;13.67;;;8.10;1.00;;;;;;6214543;23;20168;-88
2023/04/22 03:42:53;;;;;;;15.40;13.90;;;7.80;1.00;;;;;;6214252;23;20177;-88
2023/04/22 03:45:27;;;;;;;15.77;14.27;;;7.80;1.00;;;;;;6214183;23;20165;-87
2023/04/22 03:48:27;;;;;;;16.37;14.80;;;8.00;1.00;;;;;;6190536;23;20164;-88
2023/04/22 03:51:10;;;;;;;16.30;14.70;;;7.90;28.50;;;;;;6213597;23;20221;-87
2023/04/22 03:53:43;;;;;;;15.17;13.67;;;7.50;47.00;;;;;;6212477;23;20770;-88
2023/04/22 03:56:16;;;;;;;15.83;14.17;;;7.50;45.40;;;;;;6214521;23;20160;-89
2023/04/22 04:05:14;;;;;;;13.97;12.53;;;7.70;1.00;;;;;;6241143;23;20169;-88
2023/04/22 04:07:40;;;;;;;14.03;12.70;;;8.00;1.00;;;;;;6190354;23;20157;-88
2023/04/22 04:10:06;;;;;;;13.70;12.27;;;8.50;1.00;;;;;;6215412;23;20185;-87
2023/04/22 04:12:32;;;;;;;14.13;11.87;;;8.20;1.00;;;;;;6215372;23;20192;-88
2023/04/22 04:15:00;;;;;;;14.13;12.57;;;8.50;1.00;;;;;;6242383;23;20173;-88
2023/04/22 04:17:27;;;;;;;14.93;13.37;;;8.70;1.00;;;;;;6222109;23;20175;-89
2023/04/22 04:19:53;;;;;;;14.33;12.83;;;8.50;1.00;;;;;;6217771;23;20162;-90
2023/04/22 04:22:19;;;;;;;14.83;13.43;;;8.60;1.00;;;;;;6216446;23;20231;-88
2023/04/22 04:24:46;;;;;;;14.87;13.47;;;7.60;1.00;;;;;;6217987;23;20613;-90
2023/04/22 04:27:12;;;;;;;15.03;13.43;;;7.90;1.00;;;;;;6226668;23;20192;-89
2023/04/22 04:29:38;;;;;;;16.20;14.60;;;8.40;1.00;;;;;;6218889;23;20642;-90
2023/04/22 04:32:04;;;;;;;15.63;14.03;;;8.30;1.00;;;;;;6219459;23;20174;-89
2023/04/22 04:34:31;;;;;;;15.03;13.57;;;7.60;1.00;;;;;;6219461;23;20154;-90
2023/04/22 04:36:56;;;;;;;15.67;14.03;;;7.60;11.90;;;;;;6220647;23;20204;-89
2023/04/22 04:39:25;;;;;;;15.93;14.33;;;7.50;21.70;;;;;;6223819;23;20195;-88
2023/04/22 04:41:53;;;;;;;16.00;14.37;;;7.50;27.40;;;;;;6215770;23;20205;-89
2023/04/22 04:44:19;;;;;;;15.27;13.80;;;8.00;37.00;;;;;;6215630;23;20193;-89
2023/04/22 04:46:45;;;;;;;14.73;13.30;;;7.50;59.60;;;;;;6215873;23;20161;-88
2023/04/22 04:49:11;;;;;;;15.17;13.70;;;7.60;57.20;;;;;;6242580;23;20485;-89
2023/04/22 04:51:37;;;;;;;13.80;12.50;;;7.80;45.80;;;;;;6216168;23;20198;-88
2023/04/22 04:54:03;;;;;;;15.50;13.87;;;8.00;29.20;;;;;;6216339;23;20154;-89
2023/04/22 04:56:29;;;;;;;15.23;12.80;;;8.00;15.20;;;;;;6219367;23;20486;-89
2023/04/22 04:58:55;;;;;;;14.67;13.30;;;8.20;13.90;;;;;;6216101;23;20200;-89
2023/04/22 05:01:21;;;;;;;14.03;12.60;;;8.30;4.90;;;;;;6243169;22;20177;-87
2023/04/22 05:03:46;;;;;;;14.20;12.70;;;8.60;1.00;;;;;;6216111;23;20598;-89
2023/04/22 05:06:12;;;;;;;12.87;11.60;;;9.00;1.00;;;;;;6216636;23;20168;-92
2023/04/22 05:08:37;;;;;;;13.73;12.33;;;9.30;1.00;;;;;;6216621;23;20154;-89
2023/04/22 05:11:03;;;;;;;13.27;11.97;;;9.50;1.00;;;;;;6216010;23;20649;-88
2023/04/22 05:13:29;;;;;;;13.93;12.27;;;9.50;1.00;;;;;;6216234;23;20201;-89
2023/04/22 05:15:54;;;;;;;13.43;12.13;;;9.40;1.00;;;;;;6217633;23;20154;-90
2023/04/22 05:18:21;;;;;;;13.70;12.17;;;9.40;1.00;;;;;;6217977;23;20257;-89
2023/04/22 05:20:46;;;;;;;12.23;10.93;;;9.50;1.00;;;;;;6217774;22;20173;-88
2023/04/22 05:23:12;;;;;;;12.87;11.70;;;9.70;1.00;;;;;;6217585;23;20173;-89
2023/04/22 05:25:38;;;;;;;12.67;11.47;;;9.90;1.00;;;;;;6217980;23;20543;-88
2023/04/22 05:28:03;;;;;;;13.13;11.83;;;9.70;1.00;;;;;;6217740;23;20162;-89
2023/04/22 05:30:29;;;;;;;12.27;11.07;;;9.70;1.00;;;;;;6217952;22;20189;-89
2023/04/22 05:32:54;;;;;;;13.30;11.90;;;9.70;1.00;;;;;;6218308;23;20153;-89
2023/04/22 05:35:20;;;;;;;12.97;11.67;;;9.70;1.00;;;;;;6217398;23;20233;-90
2023/04/22 05:37:45;;;;;;;12.00;10.90;;;9.80;1.00;;;;;;6244936;23;20150;-89
2023/04/22 05:40:11;;;;;;;12.93;11.67;;;9.90;1.00;;;;;;6217642;23;20176;-90
2023/04/22 05:42:37;;;;;;;12.33;11.10;;;10.10;1.00;;;;;;6218042;23;20190;-90
2023/04/22 05:45:02;;;;;;;11.27;9.97;;;10.30;1.00;;;;;;6217830;23;20164;-89
2023/04/22 05:47:29;;;;;;;11.70;10.50;;;10.50;1.00;;;;;;6217696;23;20162;-90
2023/04/22 05:49:54;;;;;;;10.15;8.85;;;10.70;1.00;;;;;;6217508;23;20589;-90
2023/04/22 05:52:20;;;;;;;11.02;9.93;;;11.00;1.00;;;;;;6217552;23;20205;-89
2023/04/22 05:54:46;;;;;;;10.38;9.32;;;11.10;1.00;;;;;;6217318;23;20212;-90
2023/04/22 05:57:11;;;;;;;10.35;9.35;;;11.20;1.00;;;;;;6217757;23;20653;-89
2023/04/22 05:59:37;;;;;;;10.20;9.23;;;11.20;1.00;;;;;;6217857;23;20538;-89
2023/04/22 06:02:02;;;;;;;10.38;9.30;;;11.30;1.00;;;;;;6217584;23;20641;-90
2023/04/22 06:04:28;;;;;;;12.38;9.30;;;11.40;1.00;;;;;;6216986;23;20169;-90
2023/04/22 06:06:54;;;;;;;13.82;9.93;;;11.50;1.00;;;;;;6217231;23;20158;-89
2023/04/22 06:09:20;;;;;;;11.82;9.15;;;11.50;1.00;;;;;;6217646;23;20671;-90
2023/04/22 06:11:46;;;;;;;10.63;9.30;;;11.60;1.00;;;;;;6217636;23;20178;-89
2023/04/22 06:14:12;;;;;;;10.63;8.40;;;11.80;1.00;;;;;;6217077;23;20264;-89
2023/04/22 06:16:38;;;;;;;9.45;8.15;;;12.90;1.00;;;;;;6217549;23;20158;-89
2023/04/22 06:19:04;;;;;;;9.48;8.02;;;15.30;1.00;;;;;;6216810;23;20158;-90
2023/04/22 06:21:32;;;;;;;7.78;7.03;;;15.80;1.00;;;;;;6216020;23;20177;-89
2023/04/22 06:23:58;;;;;;;8.45;7.03;;;17.10;1.00;;;;;;6215258;23;20208;-89
2023/04/22 06:26:25;;;;;;;7.95;7.15;;;17.60;1.00;;;;;;6216394;23;20536;-90
2023/04/22 06:28:50;;;;;;;9.75;7.45;;;18.90;1.00;;;;;;6216398;23;20187;-89
2023/04/22 06:31:16;;;;;;;10.18;7.03;;;18.80;1.00;;;;;;6216478;23;20569;-90
2023/04/22 06:33:41;;;;;;;6.72;6.03;;;19.40;1.00;;;;;;6216804;23;20158;-89
2023/04/22 06:36:07;;;;;;;8.48;6.60;;;19.80;1.00;;;;;;6216516;23;20582;-90
2023/04/22 06:38:33;;;;;;;10.00;6.45;;;20.10;1.00;;;;;;6216928;23;20284;-90
2023/04/22 06:40:58;;;;;;;8.48;6.50;;;20.00;1.00;;;;;;6216707;23;20500;-89
2023/04/22 06:43:25;;;;;;;8.05;6.47;;;19.40;1.00;;;;;;6216875;23;20255;-90
2023/04/22 06:45:51;;;;;;;10.63;6.85;;;19.70;1.00;;;;;;6216711;23;20168;-90
2023/04/22 06:48:16;;;;;;;9.00;6.88;;;18.90;1.00;;;;;;6216899;23;20240;-90
2023/04/22 06:50:42;;;;;;;7.45;6.75;;;19.10;1.00;;;;;;6212051;22;20232;-88
2023/04/22 06:53:08;;;;;;;8.80;6.80;;;19.90;1.00;;;;;;6211706;23;20181;-89
2023/04/22 06:55:34;;;;;;;8.45;6.40;;;20.60;1.00;;;;;;6211013;23;20158;-90
2023/04/22 06:58:00;;;;;;;9.45;6.40;;;20.50;1.00;;;;;;6237690;23;20150;-90
2023/04/22 07:00:26;;;;;;;6.32;5.80;;;21.10;1.00;;;;;;6210572;23;20494;-88
2023/04/22 07:02:52;;;;;;;8.25;6.50;;;21.30;1.00;;;;;;6210793;23;20530;-88
2023/04/22 07:05:18;;;;;;;8.65;6.25;;;21.10;1.00;;;;;;6236806;23;20150;-89
2023/04/22 07:07:44;;;;;;;9.13;6.63;;;20.30;1.00;;;;;;6211903;23;20504;-89
2023/04/22 07:10:11;;;;;;;8.48;6.65;;;19.70;1.00;;;;;;6211958;23;20983;-90
2023/04/22 07:12:36;;;;;;;7.03;5.78;;;18.20;1.00;;;;;;6212469;23;20181;-89
2023/04/22 07:15:02;;;;;;;7.70;6.40;;;16.80;1.00;;;;;;6211553;23;20491;-89
2023/04/22 07:17:28;;;;;;;8.18;6.20;;;15.90;1.00;;;;;;6212419;23;21035;-88
2023/04/22 07:19:53;;;;;;;10.80;6.50;;;16.30;1.00;;;;;;6211887;23;20165;-88
2023/04/22 07:22:19;;;;;;;6.47;5.82;;;15.40;1.00;;;;;;6211436;23;20303;-88
2023/04/22 07:24:45;;;;;;;9.93;6.15;;;16.10;1.00;;;;;;6212484;23;20222;-88
2023/04/22 07:27:16;;;;;;;8.70;6.38;;;15.30;1.00;;;;;;6238317;23;20157;-88
2023/04/22 07:29:41;;;;;;;7.05;6.35;;;15.20;1.00;;;;;;6211216;23;20195;-88
2023/04/22 07:32:07;;;;;;;9.65;6.85;;;15.20;1.00;;;;;;6211464;23;20524;-89
2023/04/22 07:34:33;;;;;;;9.20;6.32;;;15.30;1.00;;;;;;6212247;23;20157;-89
2023/04/22 07:37:05;;;;;;;7.68;6.80;;;15.10;1.00;;;;;;6213335;23;20162;-88
2023/04/22 07:39:31;;;;;;;8.25;6.60;;;15.00;1.00;;;;;;6212812;23;20228;-88
2023/04/22 07:41:57;;;;;;;7.85;6.80;;;15.10;1.00;;;;;;6212054;23;20632;-88
2023/04/22 07:44:23;;;;;;;10.68;7.55;;;15.20;1.00;;;;;;6211801;23;20204;-88
2023/04/22 07:46:52;;;;;;;7.25;6.55;;;15.30;1.00;;;;;;6212189;23;20229;-88
2023/04/22 07:49:19;;;;;;;8.63;7.10;;;15.50;1.00;;;;;;6210691;23;20244;-89
2023/04/22 07:51:46;;;;;;;11.77;8.05;;;15.70;1.00;;;;;;6211133;23;20610;-88
2023/04/22 07:54:11;;;;;;;9.10;6.53;;;15.70;1.00;;;;;;6210678;23;20177;-87
2023/04/22 07:56:37;;;;;;;9.38;6.85;;;15.70;1.00;;;;;;6212162;23;20154;-87
2023/04/22 07:59:03;;;;;;;8.75;6.97;;;15.70;1.00;;;;;;6214289;23;20157;-88
2023/04/22 08:01:28;;;;;;;10.02;6.50;;;15.90;1.00;;;;;;6216359;23;20192;-88
2023/04/22 08:03:55;;;;;;;8.68;6.43;;;16.30;1.00;;;;;;6216771;23;20165;-88
2023/04/22 08:06:21;;;;;;;7.88;5.82;;;16.60;1.00;;;;;;6215585;23;20165;-88
2023/04/22 08:08:47;;;;;;;9.05;6.22;;;16.70;1.00;;;;;;6243361;23;20157;-89
2023/04/22 08:11:12;;;;;;;6.90;6.10;;;16.30;1.00;;;;;;6216992;23;20247;-89
2023/04/22 08:13:38;;;;;;;6.75;6.10;;;16.30;1.00;;;;;;6215160;23;20161;-91
2023/04/22 08:16:06;;;;;;;8.68;6.13;;;16.30;1.00;;;;;;6241116;23;20150;-89
2023/04/22 08:18:32;;;;;;;7.28;6.07;;;16.30;1.00;;;;;;6218394;23;20153;-89
2023/04/22 08:20:58;;;;;;;8.18;6.47;;;16.60;1.00;;;;;;6213112;23;20181;-89
2023/04/22 08:23:24;;;;;;;9.75;6.93;;;16.40;1.00;;;;;;6212387;23;20649;-88
2023/04/22 08:25:50;;;;;;;7.38;6.65;;;16.40;1.00;;;;;;6212090;23;20161;-89
2023/04/22 08:28:16;;;;;;;7.82;6.45;;;16.50;1.00;;;;;;6211377;23;20176;-88
2023/04/22 08:30:42;;;;;;;10.68;6.72;;;16.70;1.00;;;;;;6211813;22;20189;-87
2023/04/22 08:33:08;;;;;;;9.07;7.00;;;16.80;1.00;;;;;;6239172;23;20153;-88
2023/04/22 08:35:34;;;;;;;8.45;6.50;;;16.80;1.00;;;;;;6238512;23;20469;-88
2023/04/22 08:38:00;;;;;;;8.23;7.25;;;17.20;1.00;;;;;;6211136;23;20376;-88
2023/04/22 08:40:26;;;;;;;7.47;6.78;;;16.90;1.00;;;;;;6211601;23;20320;-89
2023/04/22 08:42:54;;;;;;;10.07;6.68;;;16.90;1.00;;;;;;6211631;23;20205;-88
2023/04/22 08:45:20;;;;;;;7.70;6.90;;;17.10;1.00;;;;;;6212040;23;20215;-89
2023/04/22 08:47:53;;;;;;;8.23;6.75;;;17.00;1.00;;;;;;6219239;23;20162;-89
2023/04/22 08:50:22;;;;;;;8.82;6.85;;;17.10;1.00;;;;;;6214820;23;20189;-90
2023/04/22 08:52:50;;;;;;;7.45;6.40;;;17.10;1.00;;;;;;6188617;23;20181;-89
2023/04/22 08:55:20;;;;;;;10.00;6.72;;;17.20;1.00;;;;;;6230076;23;20162;-88
2023/04/22 08:57:46;;;;;;;8.82;7.10;;;17.20;1.00;;;;;;6213394;23;20548;-89
2023/04/22 09:00:13;;;;;;;8.95;6.55;;;17.60;1.00;;;;;;6213964;23;20165;-89
2023/04/22 09:02:43;;;;;;;7.72;6.93;;;17.40;1.00;;;;;;6213931;23;20185;-89
2023/04/22 09:05:10;;;;;;;15.40;6.95;;;17.30;1.00;;;;;;6213966;23;20158;-89
2023/04/22 09:07:37;;;;;;;8.95;7.03;;;17.50;1.00;;;;;;6213067;23;20502;-86
2023/04/22 09:10:07;;;;;;;8.38;7.00;;;17.50;1.00;;;;;;6213868;23;20182;-89
2023/04/22 09:12:32;;;;;;;7.43;6.68;;;17.40;1.00;;;;;;6213838;23;20177;-89
2023/04/22 09:14:58;;;;;;;8.07;6.85;;;17.60;1.00;;;;;;6213859;23;20184;-89
2023/04/22 09:17:32;;;;;;;9.02;6.80;;;17.80;1.00;;;;;;6188866;23;20559;-89
2023/04/22 09:20:03;;;;;;;8.50;6.40;;;17.90;1.00;;;;;;6213336;23;20195;-89
2023/04/22 09:22:43;;;;;;;9.85;6.75;;;18.00;1.00;;;;;;6186964;23;20201;-89
2023/04/22 09:25:20;;;;;;;8.10;6.53;;;18.00;1.00;;;;;;6213792;23;20154;-89
2023/04/22 09:27:57;;;;;;;7.25;6.60;;;17.90;1.00;;;;;;6212119;23;20161;-89
2023/04/22 09:30:32;;;;;;;7.97;6.55;;;18.20;1.00;;;;;;6213708;23;20530;-88
2023/04/22 09:33:00;;;;;;;11.48;7.18;;;18.40;1.00;;;;;;6240518;23;20133;-89
2023/04/22 09:35:38;;;;;;;8.05;6.95;;;18.30;1.00;;;;;;6213742;23;20146;-89
2023/04/22 09:38:06;;;;;;;8.80;6.30;;;18.40;1.00;;;;;;6213496;23;20157;-88
2023/04/22 09:40:33;;;;;;;9.20;6.95;;;18.40;1.00;;;;;;6239922;22;20178;-88
2023/04/22 09:43:03;;;;;;;10.02;6.97;;;18.90;1.00;;;;;;6213979;23;20618;-89
2023/04/22 09:45:38;;;;;;;7.75;7.05;;;18.70;1.00;;;;;;6213800;23;20671;-88
2023/04/22 09:48:16;;;;;;;7.75;6.90;;;18.60;1.00;;;;;;6188305;23;20579;-87
2023/04/22 09:50:48;;;;;;;8.63;6.50;;;19.20;1.00;;;;;;6213200;22;20181;-89
2023/04/22 09:53:19;;;;;;;9.30;7.18;;;18.80;1.00;;;;;;6214077;23;20158;-88
2023/04/22 09:55:50;;;;;;;9.25;7.68;;;19.00;1.00;;;;;;6213654;23;20160;-89
2023/04/22 09:58:18;;;;;;;7.75;6.90;;;19.10;1.00;;;;;;6213813;23;20154;-88
2023/04/22 10:00:51;;;;;;;10.02;7.32;;;19.20;1.00;;;;;;6210548;22;20248;-88
2023/04/22 10:03:17;;;;;;;8.48;6.75;;;19.40;1.00;;;;;;6213157;23;20153;-88
2023/04/22 10:05:44;;;;;;;7.80;7.00;;;19.20;1.00;;;;;;6213478;23;20412;-88
2023/04/22 10:08:12;;;;;;;7.45;6.32;;;19.50;1.00;;;;;;6213554;23;20193;-88
2023/04/22 10:10:38;;;;;;;7.90;6.70;;;19.80;1.00;;;;;;6213309;22;20182;-89
2023/04/22 10:13:05;;;;;;;8.85;6.75;;;19.60;1.00;;;;;;6213544;23;20157;-88
2023/04/22 10:15:49;;;;;;;7.88;7.10;;;19.40;1.00;;;;;;6213051;23;20153;-89
2023/04/22 10:18:20;;;;;;;24.77;8.77;;;19.50;1.00;;;;;;6214129;23;20146;-88
2023/04/22 10:20:47;;;;;;;19.05;7.72;;;19.90;1.00;;;;;;6214557;22;20166;-88
2023/04/22 10:23:21;;;;;;;10.38;6.95;;;19.60;1.00;;;;;;6213382;23;20181;-88
2023/04/22 10:25:48;;;;;;;13.73;7.28;;;19.90;1.00;;;;;;6214034;23;20165;-88
2023/04/22 10:28:16;;;;;;;10.73;6.30;;;19.90;1.00;;;;;;6213633;23;20606;-88
2023/04/22 10:30:41;;;;;;;7.32;6.22;;;20.10;1.00;;;;;;6213933;22;20189;-88
2023/04/22 10:33:22;;;;;;;9.52;6.47;;;20.30;1.00;;;;;;6214133;23;20652;-87
2023/04/22 10:36:18;;;;;;;6.85;6.10;;;20.30;1.00;;;;;;6214134;23;20177;-88
2023/04/22 10:38:53;;;;;;;8.77;5.90;;;20.30;1.00;;;;;;6213390;23;20172;-89
2023/04/22 10:41:23;;;;;;;6.95;6.25;;;20.30;1.00;;;;;;6213067;23;20689;-89
2023/04/22 10:43:59;;;;;;;7.68;6.15;;;20.30;1.00;;;;;;6213827;23;20161;-89
2023/04/22 10:46:38;;;;;;;9.70;7.40;;;20.30;1.00;;;;;;6213192;23;20165;-89
2023/04/22 10:49:12;;;;;;;8.10;7.07;;;20.20;1.00;;;;;;6213380;23;20609;-87
2023/04/22 10:52:06;;;;;;;7.70;7.00;;;20.20;1.00;;;;;;6211861;23;20251;-89
2023/04/22 10:54:38;;;;;;;8.63;6.40;;;20.20;1.00;;;;;;6205193;23;20227;-89
2023/04/22 10:57:18;;;;;;;6.80;6.10;;;20.30;1.00;;;;;;6209875;23;20156;-89
2023/04/22 10:59:56;;;;;;;8.52;5.93;;;20.50;1.00;;;;;;6209085;23;20578;-89
2023/04/22 11:02:23;;;;;;;10.27;5.72;;;20.80;1.00;;;;;;6236226;22;20231;-89
2023/04/22 11:04:51;;;;;;;8.43;5.30;;;20.80;1.00;;;;;;6209483;23;20158;-89
2023/04/22 11:07:21;;;;;;;6.25;4.22;;;20.90;1.00;;;;;;6211013;23;20609;-88
2023/04/22 11:10:06;;;;;;;8.02;4.57;;;21.00;1.00;;;;;;6236725;23;20602;-89
2023/04/22 11:12:36;;;;;;;6.18;4.90;;;21.00;1.00;;;;;;6210837;23;20629;-89
2023/04/22 11:15:07;;;;;;;5.25;4.75;;;21.10;1.00;;;;;;6210475;23;20220;-90
2023/04/22 11:17:34;;;;;;;7.07;4.95;;;21.10;1.00;;;;;;6211947;23;20227;-90
2023/04/22 11:20:06;;;;;;;8.50;5.13;;;21.00;1.00;;;;;;6240695;23;20142;-90
2023/04/22 11:22:37;;;;;;;8.15;4.25;;;21.20;1.00;;;;;;6212839;23;20193;-89
2023/04/22 11:25:04;;;;;;;6.78;4.43;;;21.30;1.00;;;;;;6213067;23;20157;-89
2023/04/22 11:27:31;;;;;;;8.18;4.90;;;21.10;1.00;;;;;;6213142;23;20157;-89
2023/04/22 11:30:11;;;;;;;7.40;4.43;;;21.00;1.00;;;;;;6212780;23;20193;-89
2023/04/22 11:32:41;;;;;;;5.15;4.70;;;21.20;1.00;;;;;;6238406;22;20646;-90
2023/04/22 11:35:10;;;;;;;4.85;4.25;;;21.20;1.00;;;;;;6212105;23;20392;-89
2023/04/22 11:37:44;;;;;;;5.38;4.38;;;21.30;1.00;;;;;;6213163;23;20157;-90
2023/04/22 11:40:17;;;;;;;5.07;4.57;;;21.50;1.00;;;;;;6213019;23;20959;-90
2023/04/22 11:42:45;;;;;;;6.43;4.38;;;21.40;1.00;;;;;;6239755;22;20711;-90
2023/04/22 11:45:15;;;;;;;4.93;3.95;;;21.40;1.00;;;;;;6187670;23;20216;-90
2023/04/22 11:47:43;;;;;;;7.15;4.35;;;21.50;1.00;;;;;;6212721;23;20164;-90
2023/04/22 11:50:11;;;;;;;7.03;3.67;;;21.40;1.00;;;;;;6189050;23;20255;-90
2023/04/22 11:52:53;;;;;;;4.03;3.53;;;21.50;1.00;;;;;;6240262;22;20187;-88
2023/04/22 11:55:43;;;;;;;9.10;3.63;;;21.60;1.00;;;;;;6213834;23;20636;-91
2023/04/22 11:58:19;;;;;;;5.07;3.53;;;21.80;1.00;;;;;;6215732;23;20610;-90
2023/04/22 12:00:51;;;;;;;5.63;3.20;;;21.90;1.00;;;;;;6215370;22;20160;-90
2023/04/22 12:03:25;;;;;;;4.15;2.47;;;22.20;1.00;;;;;;6216407;23;20540;-90
2023/04/22 12:06:02;;;;;;;4.20;3.03;;;22.20;1.00;;;;;;6216270;23;20209;-90
2023/04/22 12:08:35;;;;;;;4.97;3.05;;;22.30;1.00;;;;;;6242385;23;20589;-91
2023/04/22 12:11:31;;;;;;;3.78;2.40;;;22.40;1.00;;;;;;6242223;22;20196;-90
2023/04/22 12:14:10;;;;;;;5.22;2.50;;;22.50;1.00;;;;;;6214064;23;20154;-90
2023/04/22 12:16:43;;;;;;;4.55;3.17;;;22.40;1.00;;;;;;6191852;23;20594;-90
2023/04/22 12:19:54;;;;;;;4.38;3.15;;;22.20;1.00;;;;;;6239099;23;20176;-91
2023/04/22 12:22:39;;;;;;;2.50;1.90;;;22.30;1.00;;;;;;6213938;23;20204;-91
2023/04/22 12:25:08;;;;;;;4.25;1.85;;;22.40;1.00;;;;;;6217990;23;20717;-92
2023/04/22 12:27:34;;;;;;;1.77;1.55;;;22.50;1.00;;;;;;6221787;23;20249;-90
2023/04/22 12:30:36;;;;;;;2.85;1.48;;;22.50;1.00;;;;;;6222354;23;20720;-90
2023/04/22 12:33:03;;;;;;;2.35;1.60;;;22.40;1.00;;;;;;6215466;23;20156;-91
2023/04/22 12:35:29;;;;;;;1.85;1.65;;;22.40;1.00;;;;;;6214730;23;20154;-90
2023/04/22 12:37:58;;;;;;;2.40;1.40;;;22.50;1.00;;;;;;6216220;23;20164;-92
2023/04/22 12:40:24;;;;;;;2.55;1.50;;;22.60;1.00;;;;;;6217726;23;20172;-91
2023/04/22 12:42:49;;;;;;;1.50;1.35;;;22.20;1.00;;;;;;6216904;23;20181;-92
2023/04/22 12:45:34;;;;;;;2.20;1.50;;;22.60;1.00;;;;;;6217317;23;20162;-91
2023/04/22 12:48:29;;;;;;;2.20;1.35;;;22.40;1.00;;;;;;6219047;23;20186;-91
2023/04/22 12:51:00;;;;;;;1.38;1.27;;;22.60;1.00;;;;;;6219269;22;20189;-91
2023/04/22 12:53:36;;;;;;;1.77;1.30;;;22.40;1.00;;;;;;6219986;23;20614;-91
2023/04/22 12:56:27;;;;;;;2.85;1.50;;;22.50;1.00;;;;;;6219835;23;20557;-91
2023/04/22 15:29:56;;;;;;;4.70;2.53;;;21.50;1.00;;;;;;6218628;22;20676;-89
2023/04/22 15:32:25;;;;;;;2.78;2.40;;;21.80;1.00;;;;;;6211572;23;20185;-88
2023/04/22 15:34:52;;;;;;;5.72;2.72;;;21.40;1.00;;;;;;6213675;23;20147;-89
2023/04/22 15:37:22;;;;;;;6.22;2.47;;;21.40;1.00;;;;;;6213467;23;20158;-89
2023/04/22 15:39:50;;;;;;;3.63;2.60;;;21.10;1.00;;;;;;6212445;23;20146;-89
2023/04/22 15:42:19;;;;;;;5.15;2.90;;;20.90;1.00;;;;;;6211285;23;20642;-88
2023/04/22 15:44:45;;;;;;;5.53;4.18;;;21.40;1.00;;;;;;6211798;23;20591;-89
2023/04/22 15:47:12;;;;;;;3.20;2.80;;;21.20;1.00;;;;;;6215449;23;20178;-90
2023/04/22 15:49:37;;;;;;;5.22;2.50;;;20.60;1.00;;;;;;6211716;23;20158;-89
2023/04/22 15:52:03;;;;;;;4.97;2.30;;;20.60;1.00;;;;;;6210804;23;20189;-88
2023/04/22 15:54:29;;;;;;;3.70;2.40;;;20.50;1.00;;;;;;6211516;23;20189;-89
2023/04/22 15:56:55;;;;;;;5.60;2.60;;;20.20;1.00;;;;;;6212663;23;20162;-89
2023/04/22 15:59:21;;;;;;;4.00;2.35;;;20.10;1.00;;;;;;6212305;23;20164;-89
2023/04/22 16:01:47;;;;;;;3.60;2.40;;;19.90;1.00;;;;;;6211947;23;20204;-89
2023/04/22 16:04:13;;;;;;;3.58;2.28;;;19.90;1.00;;;;;;6215329;23;20150;-89
2023/04/22 16:06:39;;;;;;;4.90;2.30;;;20.00;1.00;;;;;;6213871;23;20158;-89
2023/04/22 16:09:05;;;;;;;5.00;2.47;;;20.00;1.00;;;;;;6214304;23;20161;-90
2023/04/22 16:11:31;;;;;;;4.28;2.40;;;20.00;1.00;;;;;;6213641;23;20210;-89
2023/04/22 16:14:16;;;;;;;3.58;2.45;;;19.60;1.00;;;;;;6213823;23;20617;-89
2023/04/22 16:16:42;;;;;;;3.97;2.33;;;19.80;1.00;;;;;;6213443;23;20205;-89
2023/04/22 16:19:09;;;;;;;4.28;2.55;;;19.80;1.00;;;;;;6213156;23;20614;-89
2023/04/22 16:21:35;;;;;;;2.55;2.05;;;20.30;1.00;;;;;;6211397;23;20190;-88
2023/04/22 16:24:01;;;;;;;3.33;2.50;;;19.70;1.00;;;;;;6211824;23;20146;-89
2023/04/22 16:26:27;;;;;;;4.35;2.33;;;19.60;1.00;;;;;;6206748;23;20212;-87
2023/04/22 16:28:53;;;;;;;3.88;2.70;;;20.30;1.00;;;;;;6211515;23;20825;-89
2023/04/22 16:31:21;;;;;;;3.15;2.50;;;19.50;1.00;;;;;;6211515;23;20633;-89
2023/04/22 16:34:25;;;;;;;4.90;2.53;;;20.10;1.00;;;;;;6211760;23;20165;-88
2023/04/22 16:36:53;;;;;;;5.68;2.60;;;19.60;1.00;;;;;;6213495;23;20150;-88
2023/04/22 16:39:19;;;;;;;4.50;2.50;;;19.70;1.00;;;;;;6211227;23;20161;-89
2023/04/22 16:41:55;;;;;;;6.00;2.80;;;19.70;1.00;;;;;;6211572;23;20195;-89
2023/04/22 16:44:21;;;;;;;5.03;2.65;;;19.70;1.00;;;;;;6212255;23;20160;-90
2023/04/22 16:46:46;;;;;;;4.75;2.60;;;19.40;1.00;;;;;;6211717;23;20753;-89
2023/04/22 16:49:12;;;;;;;4.47;2.50;;;20.10;1.00;;;;;;6214660;23;20178;-89
2023/04/22 16:51:41;;;;;;;9.35;2.92;;;19.80;1.00;;;;;;6219469;23;20177;-89
2023/04/22 16:54:14;;;;;;;5.18;2.90;;;19.50;1.00;;;;;;6214351;23;20164;-89
2023/04/22 16:56:39;;;;;;;2.65;2.20;;;19.50;1.00;;;;;;6211260;23;20196;-89
2023/04/22 16:59:05;;;;;;;4.80;2.97;;;19.20;1.00;;;;;;6211239;23;20157;-90
2023/04/22 17:01:31;;;;;;;5.03;2.88;;;19.30;1.00;;;;;;6237677;22;20654;-89
2023/04/22 17:03:56;;;;;;;5.78;2.50;;;19.80;1.00;;;;;;6212636;23;20164;-90
2023/04/22 17:06:23;;;;;;;6.25;2.50;;;19.30;1.00;;;;;;6212609;23;20168;-90
2023/04/22 17:08:48;;;;;;;4.82;2.50;;;19.20;1.00;;;;;;6210499;23;20158;-89
2023/04/22 17:11:14;;;;;;;4.93;2.78;;;19.00;1.00;;;;;;6212852;23;20185;-89
2023/04/22 17:13:40;;;;;;;3.30;2.60;;;19.00;1.00;;;;;;6240407;23;20506;-90
2023/04/22 17:16:07;;;;;;;3.83;2.78;;;18.90;1.00;;;;;;6212208;23;20173;-89
2023/04/22 17:18:33;;;;;;;4.85;2.92;;;19.00;1.00;;;;;;6212346;23;20161;-90
2023/04/22 17:20:58;;;;;;;5.57;2.70;;;18.70;1.00;;;;;;6212917;23;20280;-87
2023/04/22 17:23:25;;;;;;;6.90;2.90;;;18.60;1.00;;;;;;6212873;23;20154;-88
2023/04/22 17:25:51;;;;;;;3.72;2.88;;;18.50;1.00;;;;;;6212794;23;20158;-89
2023/04/22 17:28:17;;;;;;;4.25;2.60;;;18.40;1.00;;;;;;6213140;23;20209;-89
2023/04/22 17:30:42;;;;;;;4.53;2.72;;;18.60;1.00;;;;;;6212435;22;20165;-89
2023/04/22 17:33:08;;;;;;;3.70;2.67;;;18.60;1.00;;;;;;6213978;23;20248;-89
2023/04/22 17:35:33;;;;;;;3.83;3.10;;;18.20;1.00;;;;;;6213653;23;20166;-88
2023/04/22 17:37:59;;;;;;;4.38;3.00;;;18.40;1.00;;;;;;6214353;23;20158;-89
2023/04/22 17:40:25;;;;;;;4.25;3.17;;;18.30;1.00;;;;;;6212728;23;20189;-89
2023/04/22 17:42:50;;;;;;;4.88;2.85;;;18.20;1.00;;;;;;6213879;23;20228;-89
2023/04/22 17:45:16;;;;;;;4.80;2.90;;;18.40;1.00;;;;;;6215206;23;20659;-89
2023/04/22 17:47:42;;;;;;;4.15;3.22;;;18.20;1.00;;;;;;6215353;23;20163;-89
2023/04/22 17:50:08;;;;;;;5.03;3.13;;;17.80;1.00;;;;;;6189171;23;20324;-89
2023/04/22 17:52:33;;;;;;;4.32;2.92;;;17.70;1.00;;;;;;6184325;23;20225;-89
2023/04/22 17:54:59;;;;;;;4.40;3.08;;;17.60;1.00;;;;;;6183586;23;20192;-89
2023/04/22 17:57:26;;;;;;;3.65;3.30;;;17.40;1.00;;;;;;6182653;23;20158;-90
2023/04/22 17:59:51;;;;;;;5.32;3.50;;;17.60;1.00;;;;;;6182389;23;20154;-89
2023/04/22 18:02:17;;;;;;;5.40;3.80;;;16.90;1.00;;;;;;6182288;23;20185;-89